sensor_id;sensor_type;location;lat;lon;timestamp;temperature;humidity
32139;DHT22;18644;48.700;9.210;2023-07-08T00:00:21;20.90;42.40
32139;DHT22;18644;48.700;9.210;2023-07-08T00:02:50;20.90;42.60
32139;DHT22;18644;48.700;9.210;2023-07-08T00:05:20;20.80;42.70
32139;DHT22;18644;48.700;9.210;2023-07-08T00:07:49;20.80;42.90
32139;DHT22;18644;48.700;9.210;2023-07-08T00:10:18;20.80;43.10
32139;DHT22;18644;48.700;9.210;2023-07-08T00:12:49;20.70;43.20
32139;DHT22;18644;48.700;9.210;2023-07-08T00:15:18;20.70;43.30
32139;DHT22;18644;48.700;9.210;2023-07-08T00:17:45;20.60;43.10
32139;DHT22;18644;48.700;9.210;2023-07-08T00:20:15;20.60;43.20
32139;DHT22;18644;48.700;9.210;2023-07-08T00:22:44;20.60;43.20
32139;DHT22;18644;48.700;9.210;2023-07-08T00:25:14;20.60;43.40
32139;DHT22;18644;48.700;9.210;2023-07-08T00:27:41;20.50;43.30
32139;DHT22;18644;48.700;9.210;2023-07-08T00:30:22;20.50;43.40
32139;DHT22;18644;48.700;9.210;2023-07-08T00:32:50;20.50;43.70
32139;DHT22;18644;48.700;9.210;2023-07-08T00:35:20;20.50;43.80
32139;DHT22;18644;48.700;9.210;2023-07-08T00:37:50;20.40;43.20
32139;DHT22;18644;48.700;9.210;2023-07-08T00:40:21;20.40;43.60
32139;DHT22;18644;48.700;9.210;2023-07-08T00:42:50;20.30;43.80
32139;DHT22;18644;48.700;9.210;2023-07-08T00:45:31;20.30;43.80
32139;DHT22;18644;48.700;9.210;2023-07-08T00:48:07;20.20;44.10
32139;DHT22;18644;48.700;9.210;2023-07-08T00:50:38;20.20;44.00
32139;DHT22;18644;48.700;9.210;2023-07-08T00:53:25;20.20;44.00
32139;DHT22;18644;48.700;9.210;2023-07-08T00:55:57;20.10;44.70
32139;DHT22;18644;48.700;9.210;2023-07-08T00:58:31;20.00;44.30
32139;DHT22;18644;48.700;9.210;2023-07-08T01:01:01;20.00;44.60
32139;DHT22;18644;48.700;9.210;2023-07-08T01:03:31;19.90;44.50
32139;DHT22;18644;48.700;9.210;2023-07-08T01:05:59;19.90;44.50
32139;DHT22;18644;48.700;9.210;2023-07-08T01:08:27;19.80;44.50
32139;DHT22;18644;48.700;9.210;2023-07-08T01:11:02;19.80;44.70
32139;DHT22;18644;48.700;9.210;2023-07-08T01:13:34;19.70;44.80
32139;DHT22;18644;48.700;9.210;2023-07-08T01:16:03;19.70;44.90
32139;DHT22;18644;48.700;9.210;2023-07-08T01:18:30;19.70;44.90
32139;DHT22;18644;48.700;9.210;2023-07-08T01:21:02;19.60;45.00
32139;DHT22;18644;48.700;9.210;2023-07-08T01:23:33;19.50;45.00
32139;DHT22;18644;48.700;9.210;2023-07-08T01:26:01;19.50;45.10
32139;DHT22;18644;48.700;9.210;2023-07-08T01:28:28;19.50;45.30
32139;DHT22;18644;48.700;9.210;2023-07-08T01:30:56;19.40;45.50
32139;DHT22;18644;48.700;9.210;2023-07-08T01:33:23;19.30;45.60
32139;DHT22;18644;48.700;9.210;2023-07-08T01:35:52;19.30;45.70
32139;DHT22;18644;48.700;9.210;2023-07-08T01:38:24;19.20;45.70
32139;DHT22;18644;48.700;9.210;2023-07-08T01:40:55;19.20;45.60
32139;DHT22;18644;48.700;9.210;2023-07-08T01:43:23;19.20;45.60
32139;DHT22;18644;48.700;9.210;2023-07-08T01:45:51;19.10;45.70
32139;DHT22;18644;48.700;9.210;2023-07-08T01:48:20;19.10;45.90
32139;DHT22;18644;48.700;9.210;2023-07-08T01:50:51;19.00;45.90
32139;DHT22;18644;48.700;9.210;2023-07-08T01:53:27;19.00;46.10
32139;DHT22;18644;48.700;9.210;2023-07-08T01:55:56;19.00;46.30
32139;DHT22;18644;48.700;9.210;2023-07-08T01:58:23;18.90;46.50
32139;DHT22;18644;48.700;9.210;2023-07-08T02:00:51;18.90;46.60
32139;DHT22;18644;48.700;9.210;2023-07-08T02:03:19;18.90;46.60
32139;DHT22;18644;48.700;9.210;2023-07-08T02:05:45;18.80;46.60
32139;DHT22;18644;48.700;9.210;2023-07-08T02:08:12;18.80;46.70
32139;DHT22;18644;48.700;9.210;2023-07-08T02:10:40;18.80;46.90
32139;DHT22;18644;48.700;9.210;2023-07-08T02:13:09;18.70;46.90
32139;DHT22;18644;48.700;9.210;2023-07-08T02:15:36;18.70;47.00
32139;DHT22;18644;48.700;9.210;2023-07-08T02:18:03;18.60;47.00
32139;DHT22;18644;48.700;9.210;2023-07-08T02:20:30;18.60;47.20
32139;DHT22;18644;48.700;9.210;2023-07-08T02:22:57;18.60;47.40
32139;DHT22;18644;48.700;9.210;2023-07-08T02:25:24;18.50;47.50
32139;DHT22;18644;48.700;9.210;2023-07-08T02:27:52;18.50;47.40
32139;DHT22;18644;48.700;9.210;2023-07-08T02:30:21;18.50;47.40
32139;DHT22;18644;48.700;9.210;2023-07-08T02:32:48;18.40;47.50
32139;DHT22;18644;48.700;9.210;2023-07-08T02:35:22;18.40;47.50
32139;DHT22;18644;48.700;9.210;2023-07-08T02:37:50;18.40;47.70
32139;DHT22;18644;48.700;9.210;2023-07-08T02:40:17;18.40;47.80
32139;DHT22;18644;48.700;9.210;2023-07-08T02:42:43;18.30;48.00
32139;DHT22;18644;48.700;9.210;2023-07-08T02:45:11;18.30;48.10
32139;DHT22;18644;48.700;9.210;2023-07-08T02:47:40;18.30;48.20
32139;DHT22;18644;48.700;9.210;2023-07-08T02:50:08;18.30;48.30
32139;DHT22;18644;48.700;9.210;2023-07-08T02:52:35;18.30;48.40
32139;DHT22;18644;48.700;9.210;2023-07-08T02:55:03;18.20;48.50
32139;DHT22;18644;48.700;9.210;2023-07-08T02:57:30;18.20;48.80
32139;DHT22;18644;48.700;9.210;2023-07-08T02:59:57;18.20;48.90
32139;DHT22;18644;48.700;9.210;2023-07-08T03:02:27;18.20;48.90
32139;DHT22;18644;48.700;9.210;2023-07-08T03:04:55;18.20;49.10
32139;DHT22;18644;48.700;9.210;2023-07-08T03:07:24;18.20;49.30
32139;DHT22;18644;48.700;9.210;2023-07-08T03:09:51;18.20;49.20
32139;DHT22;18644;48.700;9.210;2023-07-08T03:12:18;18.20;49.20
32139;DHT22;18644;48.700;9.210;2023-07-08T03:14:45;18.30;49.30
32139;DHT22;18644;48.700;9.210;2023-07-08T03:17:12;18.30;49.30
32139;DHT22;18644;48.700;9.210;2023-07-08T03:19:38;18.30;49.20
32139;DHT22;18644;48.700;9.210;2023-07-08T03:22:07;18.40;49.30
32139;DHT22;18644;48.700;9.210;2023-07-08T03:24:34;18.40;49.50
32139;DHT22;18644;48.700;9.210;2023-07-08T03:27:01;18.40;49.60
32139;DHT22;18644;48.700;9.210;2023-07-08T03:29:30;18.50;49.60
32139;DHT22;18644;48.700;9.210;2023-07-08T03:31:57;18.50;49.60
32139;DHT22;18644;48.700;9.210;2023-07-08T03:34:24;18.50;49.70
32139;DHT22;18644;48.700;9.210;2023-07-08T03:36:51;18.60;49.80
32139;DHT22;18644;48.700;9.210;2023-07-08T03:39:22;18.60;49.80
32139;DHT22;18644;48.700;9.210;2023-07-08T03:41:51;18.60;50.00
32139;DHT22;18644;48.700;9.210;2023-07-08T03:44:18;18.60;50.00
32139;DHT22;18644;48.700;9.210;2023-07-08T03:46:47;18.60;50.00
32139;DHT22;18644;48.700;9.210;2023-07-08T03:49:15;18.60;50.00
32139;DHT22;18644;48.700;9.210;2023-07-08T03:51:44;18.60;50.10
32139;DHT22;18644;48.700;9.210;2023-07-08T03:54:13;18.60;50.10
32139;DHT22;18644;48.700;9.210;2023-07-08T03:56:42;18.60;50.10
32139;DHT22;18644;48.700;9.210;2023-07-08T03:59:09;18.60;50.40
32139;DHT22;18644;48.700;9.210;2023-07-08T04:01:36;18.50;50.40
32139;DHT22;18644;48.700;9.210;2023-07-08T04:04:08;18.50;50.50
32139;DHT22;18644;48.700;9.210;2023-07-08T04:06:35;18.60;50.50
32139;DHT22;18644;48.700;9.210;2023-07-08T04:09:02;18.60;50.70
32139;DHT22;18644;48.700;9.210;2023-07-08T04:11:29;18.50;50.80
32139;DHT22;18644;48.700;9.210;2023-07-08T04:13:58;18.60;51.00
32139;DHT22;18644;48.700;9.210;2023-07-08T04:16:28;18.60;51.10
32139;DHT22;18644;48.700;9.210;2023-07-08T04:18:56;18.60;51.20
32139;DHT22;18644;48.700;9.210;2023-07-08T04:21:24;18.60;51.20
32139;DHT22;18644;48.700;9.210;2023-07-08T04:23:51;18.60;51.30
32139;DHT22;18644;48.700;9.210;2023-07-08T04:26:18;18.70;51.50
32139;DHT22;18644;48.700;9.210;2023-07-08T04:28:45;18.70;51.70
32139;DHT22;18644;48.700;9.210;2023-07-08T04:31:14;18.80;52.00
32139;DHT22;18644;48.700;9.210;2023-07-08T04:33:40;18.80;52.00
32139;DHT22;18644;48.700;9.210;2023-07-08T04:36:11;18.90;52.20
32139;DHT22;18644;48.700;9.210;2023-07-08T04:38:39;19.00;52.70
32139;DHT22;18644;48.700;9.210;2023-07-08T04:41:07;19.10;52.60
32139;DHT22;18644;48.700;9.210;2023-07-08T04:43:34;19.20;52.50
32139;DHT22;18644;48.700;9.210;2023-07-08T04:46:01;19.30;52.40
32139;DHT22;18644;48.700;9.210;2023-07-08T04:48:29;19.40;52.10
32139;DHT22;18644;48.700;9.210;2023-07-08T04:50:58;19.60;51.80
32139;DHT22;18644;48.700;9.210;2023-07-08T04:53:25;19.70;51.60
32139;DHT22;18644;48.700;9.210;2023-07-08T04:55:54;19.90;51.20
32139;DHT22;18644;48.700;9.210;2023-07-08T04:58:22;20.00;51.00
32139;DHT22;18644;48.700;9.210;2023-07-08T05:00:49;20.20;50.90
32139;DHT22;18644;48.700;9.210;2023-07-08T05:03:16;20.30;50.70
32139;DHT22;18644;48.700;9.210;2023-07-08T05:05:44;20.50;50.50
32139;DHT22;18644;48.700;9.210;2023-07-08T05:08:12;20.60;50.40
32139;DHT22;18644;48.700;9.210;2023-07-08T05:10:39;20.80;50.30
32139;DHT22;18644;48.700;9.210;2023-07-08T05:13:06;20.90;50.10
32139;DHT22;18644;48.700;9.210;2023-07-08T05:15:33;21.00;50.10
32139;DHT22;18644;48.700;9.210;2023-07-08T05:18:01;21.20;50.30
32139;DHT22;18644;48.700;9.210;2023-07-08T05:20:27;21.30;50.40
32139;DHT22;18644;48.700;9.210;2023-07-08T05:22:57;21.50;50.10
32139;DHT22;18644;48.700;9.210;2023-07-08T05:25:24;21.60;49.70
32139;DHT22;18644;48.700;9.210;2023-07-08T05:27:53;21.80;49.50
32139;DHT22;18644;48.700;9.210;2023-07-08T05:30:20;22.00;49.10
32139;DHT22;18644;48.700;9.210;2023-07-08T05:32:47;22.10;48.80
32139;DHT22;18644;48.700;9.210;2023-07-08T05:35:14;22.30;48.60
32139;DHT22;18644;48.700;9.210;2023-07-08T05:37:41;22.40;48.70
32139;DHT22;18644;48.700;9.210;2023-07-08T05:40:13;22.60;48.60
32139;DHT22;18644;48.700;9.210;2023-07-08T05:42:40;22.70;48.20
32139;DHT22;18644;48.700;9.210;2023-07-08T05:45:08;22.80;47.80
32139;DHT22;18644;48.700;9.210;2023-07-08T05:47:35;23.00;47.50
32139;DHT22;18644;48.700;9.210;2023-07-08T05:50:03;23.10;47.20
32139;DHT22;18644;48.700;9.210;2023-07-08T05:52:30;23.20;46.90
32139;DHT22;18644;48.700;9.210;2023-07-08T05:54:57;23.40;46.80
32139;DHT22;18644;48.700;9.210;2023-07-08T05:57:25;23.50;46.50
32139;DHT22;18644;48.700;9.210;2023-07-08T05:59:53;23.60;46.20
32139;DHT22;18644;48.700;9.210;2023-07-08T06:02:19;23.70;45.80
32139;DHT22;18644;48.700;9.210;2023-07-08T06:04:48;23.80;45.60
32139;DHT22;18644;48.700;9.210;2023-07-08T06:07:15;23.90;45.50
32139;DHT22;18644;48.700;9.210;2023-07-08T06:09:43;23.90;45.30
32139;DHT22;18644;48.700;9.210;2023-07-08T06:12:10;24.00;45.20
32139;DHT22;18644;48.700;9.210;2023-07-08T06:14:38;24.10;45.10
32139;DHT22;18644;48.700;9.210;2023-07-08T06:17:06;24.20;45.10
32139;DHT22;18644;48.700;9.210;2023-07-08T06:19:32;24.30;45.00
32139;DHT22;18644;48.700;9.210;2023-07-08T06:22:00;24.30;44.80
32139;DHT22;18644;48.700;9.210;2023-07-08T06:24:26;24.40;44.70
32139;DHT22;18644;48.700;9.210;2023-07-08T06:26:53;24.50;44.40
32139;DHT22;18644;48.700;9.210;2023-07-08T06:29:20;24.60;44.10
32139;DHT22;18644;48.700;9.210;2023-07-08T06:31:48;24.70;43.70
32139;DHT22;18644;48.700;9.210;2023-07-08T06:34:15;24.80;43.60
32139;DHT22;18644;48.700;9.210;2023-07-08T06:36:42;24.90;43.60
32139;DHT22;18644;48.700;9.210;2023-07-08T06:39:09;25.00;43.70
32139;DHT22;18644;48.700;9.210;2023-07-08T06:41:36;25.10;44.00
32139;DHT22;18644;48.700;9.210;2023-07-08T06:44:03;25.20;44.00
32139;DHT22;18644;48.700;9.210;2023-07-08T06:46:30;25.20;43.60
32139;DHT22;18644;48.700;9.210;2023-07-08T06:48:59;25.30;43.30
32139;DHT22;18644;48.700;9.210;2023-07-08T06:51:26;25.40;43.10
32139;DHT22;18644;48.700;9.210;2023-07-08T06:53:54;25.50;43.20
32139;DHT22;18644;48.700;9.210;2023-07-08T06:56:21;25.60;43.20
32139;DHT22;18644;48.700;9.210;2023-07-08T06:58:48;25.60;43.30
32139;DHT22;18644;48.700;9.210;2023-07-08T07:01:14;25.70;43.40
32139;DHT22;18644;48.700;9.210;2023-07-08T07:03:43;25.80;43.40
32139;DHT22;18644;48.700;9.210;2023-07-08T07:06:11;25.90;43.20
32139;DHT22;18644;48.700;9.210;2023-07-08T07:08:38;26.00;43.10
32139;DHT22;18644;48.700;9.210;2023-07-08T07:11:06;26.00;43.00
32139;DHT22;18644;48.700;9.210;2023-07-08T07:13:32;26.10;42.90
32139;DHT22;18644;48.700;9.210;2023-07-08T07:15:59;26.10;42.80
32139;DHT22;18644;48.700;9.210;2023-07-08T07:18:27;26.20;42.90
32139;DHT22;18644;48.700;9.210;2023-07-08T07:20:54;26.30;42.90
32139;DHT22;18644;48.700;9.210;2023-07-08T07:23:23;26.30;42.70
32139;DHT22;18644;48.700;9.210;2023-07-08T07:25:50;26.40;42.80
32139;DHT22;18644;48.700;9.210;2023-07-08T07:28:17;26.40;42.50
32139;DHT22;18644;48.700;9.210;2023-07-08T07:30:45;26.50;42.30
32139;DHT22;18644;48.700;9.210;2023-07-08T07:33:13;26.60;42.20
32139;DHT22;18644;48.700;9.210;2023-07-08T07:35:43;26.60;41.90
32139;DHT22;18644;48.700;9.210;2023-07-08T07:38:11;26.80;42.20
32139;DHT22;18644;48.700;9.210;2023-07-08T07:40:41;26.80;42.30
32139;DHT22;18644;48.700;9.210;2023-07-08T07:43:09;26.80;42.00
32139;DHT22;18644;48.700;9.210;2023-07-08T07:45:36;26.90;42.30
32139;DHT22;18644;48.700;9.210;2023-07-08T07:48:03;27.00;42.10
32139;DHT22;18644;48.700;9.210;2023-07-08T07:50:31;27.00;41.70
32139;DHT22;18644;48.700;9.210;2023-07-08T07:52:58;27.10;41.60
32139;DHT22;18644;48.700;9.210;2023-07-08T07:55:25;27.20;41.60
32139;DHT22;18644;48.700;9.210;2023-07-08T07:57:53;27.30;41.40
32139;DHT22;18644;48.700;9.210;2023-07-08T08:00:20;27.30;41.20
32139;DHT22;18644;48.700;9.210;2023-07-08T08:02:47;27.40;41.30
32139;DHT22;18644;48.700;9.210;2023-07-08T08:05:14;27.40;41.20
32139;DHT22;18644;48.700;9.210;2023-07-08T08:07:41;27.50;41.50
32139;DHT22;18644;48.700;9.210;2023-07-08T08:10:08;27.50;41.30
32139;DHT22;18644;48.700;9.210;2023-07-08T08:12:35;27.60;41.50
32139;DHT22;18644;48.700;9.210;2023-07-08T08:15:04;27.60;41.40
32139;DHT22;18644;48.700;9.210;2023-07-08T08:17:32;27.70;41.20
32139;DHT22;18644;48.700;9.210;2023-07-08T08:19:59;27.70;41.30
32139;DHT22;18644;48.700;9.210;2023-07-08T08:22:26;27.80;41.30
32139;DHT22;18644;48.700;9.210;2023-07-08T08:24:53;27.80;41.40
32139;DHT22;18644;48.700;9.210;2023-07-08T08:27:20;27.90;41.10
32139;DHT22;18644;48.700;9.210;2023-07-08T08:29:47;27.90;40.60
32139;DHT22;18644;48.700;9.210;2023-07-08T08:32:15;28.00;40.30
32139;DHT22;18644;48.700;9.210;2023-07-08T08:34:42;28.10;40.20
32139;DHT22;18644;48.700;9.210;2023-07-08T08:37:10;28.10;40.80
32139;DHT22;18644;48.700;9.210;2023-07-08T08:39:37;28.20;41.50
32139;DHT22;18644;48.700;9.210;2023-07-08T08:42:06;28.30;41.80
32139;DHT22;18644;48.700;9.210;2023-07-08T08:44:36;28.50;41.70
32139;DHT22;18644;48.700;9.210;2023-07-08T08:47:06;28.70;41.40
32139;DHT22;18644;48.700;9.210;2023-07-08T08:49:44;28.90;41.10
32139;DHT22;18644;48.700;9.210;2023-07-08T08:52:16;29.00;41.50
32139;DHT22;18644;48.700;9.210;2023-07-08T08:54:43;29.30;41.70
32139;DHT22;18644;48.700;9.210;2023-07-08T08:57:22;29.50;41.80
32139;DHT22;18644;48.700;9.210;2023-07-08T08:59:59;29.80;40.90
32139;DHT22;18644;48.700;9.210;2023-07-08T09:02:32;30.00;40.50
32139;DHT22;18644;48.700;9.210;2023-07-08T09:05:05;30.20;40.50
32139;DHT22;18644;48.700;9.210;2023-07-08T09:07:40;30.40;39.60
32139;DHT22;18644;48.700;9.210;2023-07-08T09:10:19;30.70;39.10
32139;DHT22;18644;48.700;9.210;2023-07-08T09:12:55;30.90;38.20
32139;DHT22;18644;48.700;9.210;2023-07-08T09:15:22;31.00;38.60
32139;DHT22;18644;48.700;9.210;2023-07-08T09:17:50;31.20;38.70
32139;DHT22;18644;48.700;9.210;2023-07-08T09:20:22;31.30;38.50
32139;DHT22;18644;48.700;9.210;2023-07-08T09:22:51;31.50;38.20
32139;DHT22;18644;48.700;9.210;2023-07-08T09:25:25;31.60;37.90
32139;DHT22;18644;48.700;9.210;2023-07-08T09:27:55;31.80;38.10
32139;DHT22;18644;48.700;9.210;2023-07-08T09:30:24;31.80;37.00
32139;DHT22;18644;48.700;9.210;2023-07-08T09:32:54;31.80;36.80
32139;DHT22;18644;48.700;9.210;2023-07-08T09:35:25;31.90;36.80
32139;DHT22;18644;48.700;9.210;2023-07-08T09:37:53;31.90;37.00
32139;DHT22;18644;48.700;9.210;2023-07-08T09:40:23;32.00;36.80
32139;DHT22;18644;48.700;9.210;2023-07-08T09:43:00;32.10;36.00
32139;DHT22;18644;48.700;9.210;2023-07-08T09:45:40;32.20;35.90
32139;DHT22;18644;48.700;9.210;2023-07-08T09:48:16;32.20;35.90
32139;DHT22;18644;48.700;9.210;2023-07-08T09:50:48;32.40;36.10
32139;DHT22;18644;48.700;9.210;2023-07-08T09:53:15;32.40;36.20
32139;DHT22;18644;48.700;9.210;2023-07-08T09:55:43;32.60;36.20
32139;DHT22;18644;48.700;9.210;2023-07-08T09:58:13;32.60;35.70
32139;DHT22;18644;48.700;9.210;2023-07-08T10:00:42;32.70;35.50
32139;DHT22;18644;48.700;9.210;2023-07-08T10:03:15;32.70;35.10
32139;DHT22;18644;48.700;9.210;2023-07-08T10:05:47;32.70;34.50
32139;DHT22;18644;48.700;9.210;2023-07-08T10:08:19;32.60;34.20
32139;DHT22;18644;48.700;9.210;2023-07-08T10:10:55;32.60;34.30
32139;DHT22;18644;48.700;9.210;2023-07-08T10:13:32;32.50;34.00
32139;DHT22;18644;48.700;9.210;2023-07-08T10:16:11;32.40;34.00
32139;DHT22;18644;48.700;9.210;2023-07-08T10:18:40;32.20;33.90
32139;DHT22;18644;48.700;9.210;2023-07-08T10:21:13;32.20;34.40
32139;DHT22;18644;48.700;9.210;2023-07-08T10:23:48;32.20;34.90
32139;DHT22;18644;48.700;9.210;2023-07-08T10:26:23;32.20;35.10
32139;DHT22;18644;48.700;9.210;2023-07-08T10:29:04;32.30;35.10
32139;DHT22;18644;48.700;9.210;2023-07-08T10:31:43;32.50;35.70
32139;DHT22;18644;48.700;9.210;2023-07-08T10:34:23;32.70;35.50
32139;DHT22;18644;48.700;9.210;2023-07-08T10:37:03;32.90;35.00
32139;DHT22;18644;48.700;9.210;2023-07-08T10:39:50;33.10;34.80
32139;DHT22;18644;48.700;9.210;2023-07-08T10:42:39;33.30;34.80
32139;DHT22;18644;48.700;9.210;2023-07-08T10:45:16;33.50;34.40
32139;DHT22;18644;48.700;9.210;2023-07-08T10:47:59;33.70;34.90
32139;DHT22;18644;48.700;9.210;2023-07-08T10:50:47;33.90;34.20
32139;DHT22;18644;48.700;9.210;2023-07-08T10:53:46;34.00;34.00
32139;DHT22;18644;48.700;9.210;2023-07-08T10:56:21;34.20;33.60
32139;DHT22;18644;48.700;9.210;2023-07-08T10:59:18;34.30;33.70
32139;DHT22;18644;48.700;9.210;2023-07-08T11:02:52;34.50;33.00
32139;DHT22;18644;48.700;9.210;2023-07-08T11:05:31;34.60;32.70
32139;DHT22;18644;48.700;9.210;2023-07-08T11:08:04;34.80;33.00
32139;DHT22;18644;48.700;9.210;2023-07-08T11:10:44;34.90;32.60
32139;DHT22;18644;48.700;9.210;2023-07-08T11:13:18;34.90;32.00
32139;DHT22;18644;48.700;9.210;2023-07-08T11:15:50;34.90;31.70
32139;DHT22;18644;48.700;9.210;2023-07-08T11:18:27;35.00;31.90
32139;DHT22;18644;48.700;9.210;2023-07-08T11:21:02;35.10;32.50
32139;DHT22;18644;48.700;9.210;2023-07-08T11:23:36;35.20;32.70
32139;DHT22;18644;48.700;9.210;2023-07-08T11:26:14;35.30;31.90
32139;DHT22;18644;48.700;9.210;2023-07-08T11:28:43;35.50;31.40
32139;DHT22;18644;48.700;9.210;2023-07-08T11:31:11;35.60;31.50
32139;DHT22;18644;48.700;9.210;2023-07-08T11:33:40;35.60;31.30
32139;DHT22;18644;48.700;9.210;2023-07-08T11:36:09;35.70;31.30
32139;DHT22;18644;48.700;9.210;2023-07-08T11:38:37;35.80;31.00
32139;DHT22;18644;48.700;9.210;2023-07-08T11:41:18;35.90;30.50
32139;DHT22;18644;48.700;9.210;2023-07-08T11:43:50;36.00;30.20
32139;DHT22;18644;48.700;9.210;2023-07-08T11:46:21;36.10;30.00
32139;DHT22;18644;48.700;9.210;2023-07-08T11:48:52;36.10;29.90
32139;DHT22;18644;48.700;9.210;2023-07-08T11:51:24;36.20;30.20
32139;DHT22;18644;48.700;9.210;2023-07-08T11:53:59;36.30;29.90
32139;DHT22;18644;48.700;9.210;2023-07-08T11:56:46;36.30;29.60
32139;DHT22;18644;48.700;9.210;2023-07-08T11:59:17;36.40;29.60
32139;DHT22;18644;48.700;9.210;2023-07-08T12:01:52;36.50;29.90
32139;DHT22;18644;48.700;9.210;2023-07-08T12:04:29;36.50;29.70
32139;DHT22;18644;48.700;9.210;2023-07-08T12:07:10;36.60;29.70
32139;DHT22;18644;48.700;9.210;2023-07-08T12:09:39;36.70;29.30
32139;DHT22;18644;48.700;9.210;2023-07-08T12:12:23;36.80;29.90
32139;DHT22;18644;48.700;9.210;2023-07-08T12:14:58;36.90;29.80
32139;DHT22;18644;48.700;9.210;2023-07-08T12:17:31;37.00;29.60
32139;DHT22;18644;48.700;9.210;2023-07-08T12:20:01;37.00;29.40
32139;DHT22;18644;48.700;9.210;2023-07-08T12:22:29;37.00;29.70
32139;DHT22;18644;48.700;9.210;2023-07-08T12:24:56;37.10;29.30
32139;DHT22;18644;48.700;9.210;2023-07-08T12:27:31;37.10;29.20
32139;DHT22;18644;48.700;9.210;2023-07-08T12:29:58;37.20;29.40
32139;DHT22;18644;48.700;9.210;2023-07-08T12:32:25;37.30;29.50
32139;DHT22;18644;48.700;9.210;2023-07-08T12:34:54;37.40;29.50
32139;DHT22;18644;48.700;9.210;2023-07-08T12:37:22;37.50;29.40
32139;DHT22;18644;48.700;9.210;2023-07-08T12:39:54;37.60;29.20
32139;DHT22;18644;48.700;9.210;2023-07-08T12:42:25;37.70;29.00
32139;DHT22;18644;48.700;9.210;2023-07-08T12:44:53;37.80;28.80
32139;DHT22;18644;48.700;9.210;2023-07-08T12:47:20;37.90;28.80
32139;DHT22;18644;48.700;9.210;2023-07-08T12:49:47;38.00;28.70
32139;DHT22;18644;48.700;9.210;2023-07-08T12:52:21;38.10;28.80
32139;DHT22;18644;48.700;9.210;2023-07-08T12:54:48;38.20;28.60
32139;DHT22;18644;48.700;9.210;2023-07-08T12:57:16;38.30;28.20
32139;DHT22;18644;48.700;9.210;2023-07-08T12:59:44;38.40;28.30
32139;DHT22;18644;48.700;9.210;2023-07-08T13:02:16;38.40;28.30
32139;DHT22;18644;48.700;9.210;2023-07-08T13:04:46;38.50;28.00
32139;DHT22;18644;48.700;9.210;2023-07-08T13:07:32;38.60;27.80
32139;DHT22;18644;48.700;9.210;2023-07-08T13:10:02;38.70;27.30
32139;DHT22;18644;48.700;9.210;2023-07-08T13:12:31;38.80;27.40
32139;DHT22;18644;48.700;9.210;2023-07-08T13:15:02;38.80;26.80
32139;DHT22;18644;48.700;9.210;2023-07-08T13:17:31;38.90;26.70
32139;DHT22;18644;48.700;9.210;2023-07-08T13:19:59;39.00;26.40
32139;DHT22;18644;48.700;9.210;2023-07-08T13:22:26;39.00;26.20
32139;DHT22;18644;48.700;9.210;2023-07-08T13:25:00;39.20;26.30
32139;DHT22;18644;48.700;9.210;2023-07-08T13:27:28;39.20;26.40
32139;DHT22;18644;48.700;9.210;2023-07-08T13:29:56;39.20;26.50
32139;DHT22;18644;48.700;9.210;2023-07-08T13:32:41;39.30;26.50
32139;DHT22;18644;48.700;9.210;2023-07-08T13:35:21;39.50;26.70
32139;DHT22;18644;48.700;9.210;2023-07-08T13:37:49;39.50;26.30
32139;DHT22;18644;48.700;9.210;2023-07-08T13:40:16;39.60;26.70
32139;DHT22;18644;48.700;9.210;2023-07-08T13:42:47;39.70;26.50
32139;DHT22;18644;48.700;9.210;2023-07-08T13:45:22;39.70;26.20
32139;DHT22;18644;48.700;9.210;2023-07-08T13:48:00;39.80;26.10
32139;DHT22;18644;48.700;9.210;2023-07-08T13:50:34;39.80;26.00
32139;DHT22;18644;48.700;9.210;2023-07-08T13:53:16;39.90;26.30
32139;DHT22;18644;48.700;9.210;2023-07-08T13:55:44;39.90;25.60
32139;DHT22;18644;48.700;9.210;2023-07-08T13:58:16;40.00;25.70
32139;DHT22;18644;48.700;9.210;2023-07-08T14:00:44;40.00;25.60
32139;DHT22;18644;48.700;9.210;2023-07-08T14:03:14;40.10;25.80
32139;DHT22;18644;48.700;9.210;2023-07-08T14:05:44;40.10;25.90
32139;DHT22;18644;48.700;9.210;2023-07-08T14:08:13;40.20;25.80
32139;DHT22;18644;48.700;9.210;2023-07-08T14:10:43;40.30;25.70
32139;DHT22;18644;48.700;9.210;2023-07-08T14:13:11;40.20;25.30
32139;DHT22;18644;48.700;9.210;2023-07-08T14:15:39;40.20;25.10
32139;DHT22;18644;48.700;9.210;2023-07-08T14:18:07;40.20;25.10
32139;DHT22;18644;48.700;9.210;2023-07-08T14:20:37;40.20;25.10
32139;DHT22;18644;48.700;9.210;2023-07-08T14:23:04;40.20;25.10
32139;DHT22;18644;48.700;9.210;2023-07-08T14:25:31;40.30;25.20
32139;DHT22;18644;48.700;9.210;2023-07-08T14:27:58;40.30;25.20
32139;DHT22;18644;48.700;9.210;2023-07-08T14:30:25;40.30;25.20
32139;DHT22;18644;48.700;9.210;2023-07-08T14:32:51;40.30;25.00
32139;DHT22;18644;48.700;9.210;2023-07-08T14:35:23;40.30;24.70
32139;DHT22;18644;48.700;9.210;2023-07-08T14:37:53;40.20;24.40
32139;DHT22;18644;48.700;9.210;2023-07-08T14:40:25;40.00;24.50
32139;DHT22;18644;48.700;9.210;2023-07-08T14:43:00;40.00;24.60
32139;DHT22;18644;48.700;9.210;2023-07-08T14:45:29;40.00;24.60
32139;DHT22;18644;48.700;9.210;2023-07-08T14:47:58;40.00;24.70
32139;DHT22;18644;48.700;9.210;2023-07-08T14:50:25;39.90;24.60
32139;DHT22;18644;48.700;9.210;2023-07-08T14:52:56;39.90;24.60
32139;DHT22;18644;48.700;9.210;2023-07-08T14:55:23;39.80;24.70
32139;DHT22;18644;48.700;9.210;2023-07-08T14:57:51;39.60;24.70
32139;DHT22;18644;48.700;9.210;2023-07-08T15:00:18;39.60;24.70
32139;DHT22;18644;48.700;9.210;2023-07-08T15:02:47;39.60;25.00
32139;DHT22;18644;48.700;9.210;2023-07-08T15:05:18;39.60;24.90
32139;DHT22;18644;48.700;9.210;2023-07-08T15:07:49;39.60;24.80
32139;DHT22;18644;48.700;9.210;2023-07-08T15:10:18;39.60;24.80
32139;DHT22;18644;48.700;9.210;2023-07-08T15:12:46;39.50;24.60
32139;DHT22;18644;48.700;9.210;2023-07-08T15:15:16;39.40;24.60
32139;DHT22;18644;48.700;9.210;2023-07-08T15:17:44;39.30;24.60
32139;DHT22;18644;48.700;9.210;2023-07-08T15:20:12;39.10;24.30
32139;DHT22;18644;48.700;9.210;2023-07-08T15:22:44;38.90;24.60
32139;DHT22;18644;48.700;9.210;2023-07-08T15:25:13;38.80;24.50
32139;DHT22;18644;48.700;9.210;2023-07-08T15:27:44;38.60;24.50
32139;DHT22;18644;48.700;9.210;2023-07-08T15:30:16;38.50;24.60
32139;DHT22;18644;48.700;9.210;2023-07-08T15:32:45;38.30;24.30
32139;DHT22;18644;48.700;9.210;2023-07-08T15:35:14;38.10;24.00
32139;DHT22;18644;48.700;9.210;2023-07-08T15:37:43;37.90;24.00
32139;DHT22;18644;48.700;9.210;2023-07-08T15:40:13;37.80;24.20
32139;DHT22;18644;48.700;9.210;2023-07-08T15:42:44;37.60;24.70
32139;DHT22;18644;48.700;9.210;2023-07-08T15:45:14;37.40;24.80
32139;DHT22;18644;48.700;9.210;2023-07-08T15:47:43;37.30;25.30